MSC Bettina — HPFG — position and weather

sailwx.info

Track history (hours):
 
Tides and Currents Weather Stations Pressure Air Temp Water Temp Dewpoint Dewpoint Depression Visibility Wind Speed Wind Dir Waves Ship Positions

MSC Bettina

Last reported at 2016-May-17 08:27 UTC. Time now 2016-May-28 22:04 UTC.
Position N 30°39' E 032°20'.
Warning: this ship's position is 11 days out of date.

Length 366 m; draft 15 m.

Type: Ship (hazmat cat A). MMSI: 352361000.

Date/timePositionNaut miles runAvg speedWind from/ knotsBaromVisibWave heightAir tempDewpointWater temp
2016-May-17 08:27N 30°39' E 032°20'10 7.7
2016-May-17 07:11N 30°49' E 032°19'6 9.0
2016-May-17 06:33N 30°55' E 032°19'9 9.1
2016-May-17 05:33N 31°04' E 032°19'9 8.7
2016-May-17 04:33N 31°12' E 032°20'8 7.6
2016-May-17 03:31N 31°20' E 032°23'8 8.2
2016-May-17 02:33N 31°28' E 032°23'3 3.4
2016-May-17 01:33N 31°28' E 032°19'0 0.1
2016-May-17 00:33N 31°28' E 032°19'0 0.0
2016-May-16 23:33N 31°28' E 032°19'0 0.0
2016-May-16 22:33N 31°28' E 032°19'0 0.1
2016-May-16 20:33N 31°28' E 032°19'1111.3
2016-May-16 19:33N 31°35' E 032°08'1615.6
2016-May-16 18:33N 31°46' E 031°55'1615.6
2016-May-16 17:33N 31°56' E 031°41'1515.5
2016-May-16 16:33N 32°06' E 031°27'1615.7
2016-May-16 15:33N 32°16' E 031°12'1616.3
2016-May-16 14:33N 32°26' E 030°58'1716.5
2016-May-16 13:33N 32°37' E 030°42'1616.4
2016-May-16 12:33N 32°47' E 030°27'1716.3
2016-May-16 11:30N 32°58' E 030°11'30016.4
2016-May-15 17:10N 36°01' E 025°22'1016.0
2016-May-15 16:32N 36°06' E 025°12'5316.8
2016-May-15 13:21N 36°35' E 024°16'1416.8
2016-May-15 12:33N 36°47' E 024°07'1716.8
2016-May-15 11:33N 37°02' E 024°00'1717.1
2016-May-15 10:33N 37°18' E 023°52'1615.9
2016-May-15 09:34N 37°33' E 023°45'1615.8
2016-May-15 08:34N 37°48' E 023°38'9 9.4
2016-May-15 07:33N 37°57' E 023°35'0 0.2
2016-May-15 06:33N 37°57' E 023°35'0 0.0
2016-May-15 05:32N 37°57' E 023°35'0 0.0
2016-May-15 04:32N 37°57' E 023°35'0 0.0
2016-May-15 03:32N 37°57' E 023°35'0 0.0
2016-May-15 02:32N 37°57' E 023°35'0 0.0
2016-May-15 01:32N 37°57' E 023°35'0 0.0
2016-May-15 00:32N 37°57' E 023°35'0 0.0
2016-May-14 23:32N 37°57' E 023°35'0 0.0
2016-May-14 22:31N 37°57' E 023°35'0 0.0
2016-May-14 21:31N 37°57' E 023°35'0 0.0
2016-May-14 20:33N 37°57' E 023°35'0 0.0
2016-May-14 19:32N 37°57' E 023°35'0 0.0
2016-May-14 18:31N 37°57' E 023°35'0 0.0
2016-May-14 17:33N 37°57' E 023°35'0 0.0
2016-May-14 16:31N 37°57' E 023°35'0 0.0
2016-May-14 15:31N 37°57' E 023°35'0 0.0
2016-May-14 14:32N 37°57' E 023°35'0 0.0
2016-May-14 13:31N 37°57' E 023°35'0 0.0
2016-May-14 12:32N 37°57' E 023°35'0 0.0
2016-May-14 11:32N 37°57' E 023°35'0 0.0
2016-May-14 10:32N 37°57' E 023°35'0 0.0
2016-May-14 09:32N 37°57' E 023°35'0 0.0
2016-May-14 08:32N 37°57' E 023°35'0 0.0
2016-May-14 07:32N 37°57' E 023°35'0 0.0
2016-May-14 06:29N 37°57' E 023°35'0 0.0
2016-May-14 05:32N 37°57' E 023°35'0 0.0
2016-May-14 04:32N 37°57' E 023°35'6 6.1
2016-May-14 03:33N 37°52' E 023°38'1717.3
2016-May-14 02:33N 37°39' E 023°52'2019.8
2016-May-14 01:33N 37°44' E 024°16'2121.0
2016-May-14 00:33N 37°58' E 024°37'8320.7
2016-May-13 20:32N 39°12' E 025°23'2820.0
2016-May-13 19:06N 39°38' E 025°39'1220.4
2016-May-13 18:30N 39°49' E 025°47'2118.0
2016-May-13 17:20N 40°02' E 026°09'94 2.3
2016-May-12 00:23N 40°40' E 028°01'1314.9
2016-May-11 23:32N 40°40' E 028°18'1313.7
2016-May-11 22:33N 40°45' E 028°34'1312.0
2016-May-11 21:29N 40°57' E 028°40'  
2016-May-09 04:05N 40°57' E 028°41'4 7.6
2016-May-09 03:31N 40°53' E 028°44'2 1.7
2016-May-09 02:33N 40°52' E 028°46'7 7.4
2016-May-09 01:33N 40°48' E 028°54'1414.0
2016-May-09 00:33N 40°45' E 029°12'1313.0
2016-May-08 23:33N 40°45' E 029°29'10 9.8
2016-May-08 22:30N 40°46' E 029°42'0 0.2
2016-May-08 20:14N 40°46' E 029°43'0 0.0
2016-May-08 18:14N 40°46' E 029°43'0 0.0
2016-May-08 17:26N 40°46' E 029°43'0 0.0
2016-May-08 16:32N 40°46' E 029°43'0 0.0
2016-May-08 14:20N 40°46' E 029°43'0 0.0
2016-May-08 12:14N 40°46' E 029°43'0 0.0
2016-May-08 09:20N 40°46' E 029°43'0 0.0
2016-May-08 02:20N 40°46' E 029°43'0 0.0
2016-May-07 21:32N 40°46' E 029°43'0 0.0
2016-May-07 16:26N 40°46' E 029°43'0 0.4
2016-May-07 15:31N 40°46' E 029°42'1010.7
2016-May-07 14:33N 40°45' E 029°29'1110.6
2016-May-07 13:33N 40°44' E 029°15'5 5.4
2016-May-07 12:33N 40°43' E 029°08'1111.1
2016-May-07 11:33N 40°40' E 028°53'  
Track history (hours):
 
Tides and Currents Weather Stations Pressure Air Temp Water Temp Dewpoint Dewpoint Depression Visibility Wind Speed Wind Dir Waves Ship Positions

MSC Bettina

Last reported at 2016-May-17 08:27 UTC. Time now 2016-May-28 22:04 UTC.
Position N 30°39' E 032°20'.
Warning: this ship's position is 11 days out of date.

Length 366 m; draft 15 m.

Type: Ship (hazmat cat A). MMSI: 352361000.

Date/timePositionNaut miles runAvg speedWind from/ knotsBaromVisibWave heightAir tempDewpointWater temp
2016-May-17 08:27N 30°39' E 032°20'10 7.7
2016-May-17 07:11N 30°49' E 032°19'6 9.0
2016-May-17 06:33N 30°55' E 032°19'9 9.1
2016-May-17 05:33N 31°04' E 032°19'9 8.7
2016-May-17 04:33N 31°12' E 032°20'8 7.6
2016-May-17 03:31N 31°20' E 032°23'8 8.2
2016-May-17 02:33N 31°28' E 032°23'3 3.4
2016-May-17 01:33N 31°28' E 032°19'0 0.1
2016-May-17 00:33N 31°28' E 032°19'0 0.0
2016-May-16 23:33N 31°28' E 032°19'0 0.0
2016-May-16 22:33N 31°28' E 032°19'0 0.1
2016-May-16 20:33N 31°28' E 032°19'1111.3
2016-May-16 19:33N 31°35' E 032°08'1615.6
2016-May-16 18:33N 31°46' E 031°55'1615.6
2016-May-16 17:33N 31°56' E 031°41'1515.5
2016-May-16 16:33N 32°06' E 031°27'1615.7
2016-May-16 15:33N 32°16' E 031°12'1616.3
2016-May-16 14:33N 32°26' E 030°58'1716.5
2016-May-16 13:33N 32°37' E 030°42'1616.4
2016-May-16 12:33N 32°47' E 030°27'1716.3
2016-May-16 11:30N 32°58' E 030°11'30016.4
2016-May-15 17:10N 36°01' E 025°22'1016.0
2016-May-15 16:32N 36°06' E 025°12'5316.8
2016-May-15 13:21N 36°35' E 024°16'1416.8
2016-May-15 12:33N 36°47' E 024°07'1716.8
2016-May-15 11:33N 37°02' E 024°00'1717.1
2016-May-15 10:33N 37°18' E 023°52'1615.9
2016-May-15 09:34N 37°33' E 023°45'1615.8
2016-May-15 08:34N 37°48' E 023°38'9 9.4
2016-May-15 07:33N 37°57' E 023°35'0 0.2
2016-May-15 06:33N 37°57' E 023°35'0 0.0
2016-May-15 05:32N 37°57' E 023°35'0 0.0
2016-May-15 04:32N 37°57' E 023°35'0 0.0
2016-May-15 03:32N 37°57' E 023°35'0 0.0
2016-May-15 02:32N 37°57' E 023°35'0 0.0
2016-May-15 01:32N 37°57' E 023°35'0 0.0
2016-May-15 00:32N 37°57' E 023°35'0 0.0
2016-May-14 23:32N 37°57' E 023°35'0 0.0
2016-May-14 22:31N 37°57' E 023°35'0 0.0
2016-May-14 21:31N 37°57' E 023°35'0 0.0
2016-May-14 20:33N 37°57' E 023°35'0 0.0
2016-May-14 19:32N 37°57' E 023°35'0 0.0
2016-May-14 18:31N 37°57' E 023°35'0 0.0
2016-May-14 17:33N 37°57' E 023°35'0 0.0
2016-May-14 16:31N 37°57' E 023°35'0 0.0
2016-May-14 15:31N 37°57' E 023°35'0 0.0
2016-May-14 14:32N 37°57' E 023°35'0 0.0
2016-May-14 13:31N 37°57' E 023°35'0 0.0
2016-May-14 12:32N 37°57' E 023°35'0 0.0
2016-May-14 11:32N 37°57' E 023°35'0 0.0
2016-May-14 10:32N 37°57' E 023°35'0 0.0
2016-May-14 09:32N 37°57' E 023°35'0 0.0
2016-May-14 08:32N 37°57' E 023°35'0 0.0
2016-May-14 07:32N 37°57' E 023°35'0 0.0
2016-May-14 06:29N 37°57' E 023°35'0 0.0
2016-May-14 05:32N 37°57' E 023°35'0 0.0
2016-May-14 04:32N 37°57' E 023°35'6 6.1
2016-May-14 03:33N 37°52' E 023°38'1717.3
2016-May-14 02:33N 37°39' E 023°52'2019.8
2016-May-14 01:33N 37°44' E 024°16'2121.0
2016-May-14 00:33N 37°58' E 024°37'8320.7
2016-May-13 20:32N 39°12' E 025°23'2820.0
2016-May-13 19:06N 39°38' E 025°39'1220.4
2016-May-13 18:30N 39°49' E 025°47'2118.0
2016-May-13 17:20N 40°02' E 026°09'94 2.3
2016-May-12 00:23N 40°40' E 028°01'1314.9
2016-May-11 23:32N 40°40' E 028°18'1313.7
2016-May-11 22:33N 40°45' E 028°34'1312.0
2016-May-11 21:29N 40°57' E 028°40'  
2016-May-09 04:05N 40°57' E 028°41'4 7.6
2016-May-09 03:31N 40°53' E 028°44'2 1.7
2016-May-09 02:33N 40°52' E 028°46'7 7.4
2016-May-09 01:33N 40°48' E 028°54'1414.0
2016-May-09 00:33N 40°45' E 029°12'1313.0
2016-May-08 23:33N 40°45' E 029°29'10 9.8
2016-May-08 22:30N 40°46' E 029°42'0 0.2
2016-May-08 20:14N 40°46' E 029°43'0 0.0
2016-May-08 18:14N 40°46' E 029°43'0 0.0
2016-May-08 17:26N 40°46' E 029°43'0 0.0
2016-May-08 16:32N 40°46' E 029°43'0 0.0
2016-May-08 14:20N 40°46' E 029°43'0 0.0
2016-May-08 12:14N 40°46' E 029°43'0 0.0
2016-May-08 09:20N 40°46' E 029°43'0 0.0
2016-May-08 02:20N 40°46' E 029°43'0 0.0
2016-May-07 21:32N 40°46' E 029°43'0 0.0
2016-May-07 16:26N 40°46' E 029°43'0 0.4
2016-May-07 15:31N 40°46' E 029°42'1010.7
2016-May-07 14:33N 40°45' E 029°29'1110.6
2016-May-07 13:33N 40°44' E 029°15'5 5.4
2016-May-07 12:33N 40°43' E 029°08'1111.1
2016-May-07 11:33N 40°40' E 028°53'  

Dump ship's entire track history